Time;durP1;ratioP1;P1;durP2;ratioP2;P2;SDS_P1;SDS_P2;PMS_P1;PMS_P2;Temp;Humidity;BMP_temperature;BMP_pressure;BME280_temperature;BME280_humidity;BME280_pressure;Samples;Min_cycle;Max_cycle;Signal;HPM_P1;HPM_P2
2021/01/28 00:00:04;;;;;;;9.25;4.75;;;;;;;;;;1736563;80;21129;-76
2021/01/28 00:02:32;;;;;;;10.80;5.58;;;;;;;;;;1742085;82;21158;-75
2021/01/28 00:04:58;;;;;;;15.30;8.05;;;;;;;;;;1745274;80;21585;-75
2021/01/28 00:07:25;;;;;;;17.50;6.97;;;;;;;;;;1746578;80;21189;-77
2021/01/28 00:09:51;;;;;;;10.58;6.10;;;;;;;;;;1743271;80;21134;-76
2021/01/28 00:12:17;;;;;;;11.38;6.45;;;;;;;;;;1743250;82;22291;-78
2021/01/28 00:14:43;;;;;;;12.78;6.55;;;;;;;;;;1741286;80;21126;-75
2021/01/28 00:17:09;;;;;;;14.18;6.40;;;;;;;;;;1742187;82;21237;-76
2021/01/28 00:19:35;;;;;;;20.17;8.83;;;;;;;;;;1737891;80;21181;-75
2021/01/28 00:22:02;;;;;;;14.40;5.83;;;;;;;;;;1742542;82;21181;-79
2021/01/28 00:24:28;;;;;;;16.55;7.42;;;;;;;;;;1742939;80;21164;-75
2021/01/28 00:26:54;;;;;;;13.28;6.22;;;;;;;;;;1741244;81;21566;-79
2021/01/28 00:29:20;;;;;;;14.93;8.00;;;;;;;;;;1742618;80;21162;-76
2021/01/28 00:31:46;;;;;;;11.68;6.75;;;;;;;;;;1741686;81;21172;-79
2021/01/28 00:34:13;;;;;;;14.95;8.38;;;;;;;;;;1743562;82;21154;-76
2021/01/28 00:36:39;;;;;;;15.23;7.20;;;;;;;;;;1743427;80;21150;-79
2021/01/28 00:39:05;;;;;;;12.58;5.92;;;;;;;;;;1743518;82;21490;-75
2021/01/28 00:41:31;;;;;;;14.20;6.42;;;;;;;;;;1742147;81;21161;-76
2021/01/28 00:43:57;;;;;;;17.27;8.65;;;;;;;;;;1744146;80;21518;-75
2021/01/28 00:46:24;;;;;;;18.27;6.15;;;;;;;;;;1746013;80;21193;-75
2021/01/28 00:48:50;;;;;;;17.37;8.25;;;;;;;;;;1747722;80;21593;-75
2021/01/28 00:51:16;;;;;;;17.35;6.15;;;;;;;;;;1748564;80;21181;-75
2021/01/28 00:53:42;;;;;;;14.70;7.37;;;;;;;;;;1747663;82;21577;-75
2021/01/28 00:56:08;;;;;;;12.47;6.35;;;;;;;;;;1747937;80;21121;-75
2021/01/28 00:58:34;;;;;;;13.85;6.83;;;;;;;;;;1747591;80;21601;-75
2021/01/28 01:01:01;;;;;;;15.32;7.58;;;;;;;;;;1742359;80;21203;-75
2021/01/28 01:03:29;;;;;;;15.08;7.45;;;;;;;;;;1723778;81;21148;-74
2021/01/28 01:05:55;;;;;;;12.78;7.28;;;;;;;;;;1735517;80;21586;-77
2021/01/28 01:08:25;;;;;;;4.12;2.60;;;;;;;;;;1754016;81;21176;-75
2021/01/28 01:11:03;;;;;;;17.75;7.80;;;;;;;;;;1754210;80;21171;-76
2021/01/28 01:13:30;;;;;;;13.98;7.50;;;;;;;;;;1748699;80;21291;-75
2021/01/28 01:15:56;;;;;;;13.95;7.25;;;;;;;;;;1736471;80;21581;-75
2021/01/28 01:18:24;;;;;;;10.55;5.30;;;;;;;;;;1723600;82;21303;-77
2021/01/28 01:20:50;;;;;;;17.10;7.83;;;;;;;;;;1723569;82;21202;-78
2021/01/28 01:23:17;;;;;;;13.22;6.55;;;;;;;;;;1723575;82;21688;-78
2021/01/28 01:25:43;;;;;;;12.65;5.42;;;;;;;;;;1723634;82;21167;-75
2021/01/28 01:28:09;;;;;;;9.40;5.37;;;;;;;;;;1724452;82;21716;-75
2021/01/28 01:30:35;;;;;;;13.68;6.45;;;;;;;;;;1701316;84;21191;-78
2021/01/28 01:33:02;;;;;;;10.63;4.78;;;;;;;;;;1700998;83;21602;-74
2021/01/28 01:35:28;;;;;;;10.65;5.92;;;;;;;;;;1706782;81;21129;-75
2021/01/28 01:37:54;;;;;;;8.30;4.53;;;;;;;;;;1728187;82;21140;-75
2021/01/28 01:40:25;;;;;;;11.50;5.05;;;;;;;;;;1728321;82;21137;-75
2021/01/28 01:42:52;;;;;;;10.78;5.55;;;;;;;;;;1727869;82;21141;-75
2021/01/28 01:45:20;;;;;;;11.22;6.08;;;;;;;;;;1723858;81;21207;-74
2021/01/28 01:47:50;;;;;;;8.70;5.45;;;;;;;;;;1723011;82;21568;-78
2021/01/28 01:50:35;;;;;;;8.85;5.92;;;;;;;;;;1723681;82;21326;-75
2021/01/28 01:53:02;;;;;;;9.70;5.00;;;;;;;;;;1723880;82;21265;-74
2021/01/28 01:55:28;;;;;;;13.13;5.47;;;;;;;;;;1696825;83;21579;-78
2021/01/28 01:57:55;;;;;;;6.72;3.90;;;;;;;;;;1723806;82;21216;-75
2021/01/28 02:00:21;;;;;;;9.38;3.60;;;;;;;;;;1740299;81;21579;-78
2021/01/28 02:02:49;;;;;;;10.58;5.25;;;;;;;;;;1701136;83;21194;-77
2021/01/28 02:05:19;;;;;;;22.55;4.75;;;;;;;;;;1723551;83;21172;-74
2021/01/28 02:07:45;;;;;;;17.35;6.78;;;;;;;;;;1723609;82;21148;-74
2021/01/28 02:10:12;;;;;;;7.05;3.83;;;;;;;;;;1723642;82;21576;-78
2021/01/28 02:12:38;;;;;;;6.65;4.05;;;;;;;;;;1723664;83;21137;-77
2021/01/28 02:15:06;;;;;;;6.53;3.77;;;;;;;;;;1748200;82;21130;-74
2021/01/28 02:17:32;;;;;;;8.25;4.50;;;;;;;;;;1753610;80;21557;-78
2021/01/28 02:20:17;;;;;;;10.68;5.00;;;;;;;;;;1753775;81;21162;-74
2021/01/28 02:22:45;;;;;;;6.55;4.15;;;;;;;;;;1753583;82;21185;-74
2021/01/28 02:25:22;;;;;;;7.80;3.55;;;;;;;;;;1753421;80;21616;-78
2021/01/28 02:27:48;;;;;;;10.95;4.62;;;;;;;;;;1753484;81;21659;-77
2021/01/28 02:30:15;;;;;;;14.68;5.28;;;;;;;;;;1753343;80;21105;-74
2021/01/28 02:32:41;;;;;;;12.60;6.12;;;;;;;;;;1753743;82;21188;-74
2021/01/28 02:35:08;;;;;;;7.80;4.65;;;;;;;;;;1753685;82;21133;-77
2021/01/28 02:37:35;;;;;;;9.93;4.50;;;;;;;;;;1753770;82;21126;-77
2021/01/28 02:40:01;;;;;;;12.75;6.90;;;;;;;;;;1753388;82;21637;-73
2021/01/28 02:42:29;;;;;;;10.35;4.75;;;;;;;;;;1753420;82;21122;-77
2021/01/28 02:44:55;;;;;;;10.18;3.90;;;;;;;;;;1769886;80;21110;-77
2021/01/28 02:47:22;;;;;;;8.55;5.50;;;;;;;;;;1735441;80;21574;-79
2021/01/28 02:49:51;;;;;;;8.28;4.60;;;;;;;;;;1730235;81;21140;-78
2021/01/28 02:52:17;;;;;;;12.15;6.50;;;;;;;;;;1745178;81;21583;-75
2021/01/28 02:54:48;;;;;;;9.58;5.85;;;;;;;;;;1712682;82;21137;-75
2021/01/28 02:57:14;;;;;;;8.08;3.65;;;;;;;;;;1712727;82;21168;-78
2021/01/28 02:59:40;;;;;;;10.08;5.00;;;;;;;;;;1721041;82;21190;-79
2021/01/28 03:02:08;;;;;;;11.33;5.72;;;;;;;;;;1766577;80;21138;-79
2021/01/28 03:04:34;;;;;;;13.48;6.75;;;;;;;;;;1775803;80;21123;-80
2021/01/28 03:07:01;;;;;;;9.78;4.12;;;;;;;;;;1756976;80;21163;-75
2021/01/28 03:09:27;;;;;;;9.98;5.17;;;;;;;;;;1745025;81;21155;-74
2021/01/28 03:11:54;;;;;;;9.03;4.33;;;;;;;;;;1745238;81;21195;-77
2021/01/28 03:14:20;;;;;;;15.58;6.62;;;;;;;;;;1746856;81;21158;-74
2021/01/28 03:16:46;;;;;;;6.87;3.80;;;;;;;;;;1775677;81;21162;-80
2021/01/28 03:19:12;;;;;;;10.20;4.75;;;;;;;;;;1775851;81;21158;-74
2021/01/28 03:21:38;;;;;;;10.38;4.60;;;;;;;;;;1775723;80;21691;-74
2021/01/28 03:24:05;;;;;;;11.73;5.37;;;;;;;;;;1775942;81;21135;-74
2021/01/28 03:26:31;;;;;;;12.45;4.55;;;;;;;;;;1775860;80;21130;-77
2021/01/28 03:28:57;;;;;;;11.68;5.95;;;;;;;;;;1756425;81;21178;-74
2021/01/28 03:31:24;;;;;;;10.50;5.42;;;;;;;;;;1725113;82;21171;-74
2021/01/28 03:33:50;;;;;;;12.28;6.05;;;;;;;;;;1725055;83;21296;-78
2021/01/28 03:36:16;;;;;;;12.13;5.72;;;;;;;;;;1734121;81;21144;-74
2021/01/28 03:38:42;;;;;;;14.63;6.15;;;;;;;;;;1745157;82;21571;-74
2021/01/28 03:41:08;;;;;;;15.13;7.42;;;;;;;;;;1745490;81;21168;-78
2021/01/28 03:43:34;;;;;;;16.05;7.00;;;;;;;;;;1740352;81;21568;-75
2021/01/28 03:46:01;;;;;;;13.80;6.28;;;;;;;;;;1726504;82;21384;-74
2021/01/28 03:48:27;;;;;;;18.10;6.20;;;;;;;;;;1730425;81;21139;-79
2021/01/28 03:50:53;;;;;;;7.28;3.77;;;;;;;;;;1730443;81;21589;-75
2021/01/28 03:53:19;;;;;;;15.03;7.08;;;;;;;;;;1730627;81;21226;-74
2021/01/28 03:55:45;;;;;;;9.25;4.58;;;;;;;;;;1730365;81;21179;-79
2021/01/28 03:58:12;;;;;;;13.03;6.28;;;;;;;;;;1731516;81;21222;-75
2021/01/28 04:00:38;;;;;;;14.43;6.25;;;;;;;;;;1747213;82;21644;-74
2021/01/28 04:03:04;;;;;;;17.27;7.97;;;;;;;;;;1747568;82;21142;-75
2021/01/28 04:05:31;;;;;;;13.40;6.87;;;;;;;;;;1747817;82;21601;-79
2021/01/28 04:07:57;;;;;;;14.58;6.67;;;;;;;;;;1747672;81;21146;-78
2021/01/28 04:10:25;;;;;;;14.35;7.08;;;;;;;;;;1747596;81;21605;-75
2021/01/28 04:12:51;;;;;;;13.28;7.12;;;;;;;;;;1747784;81;21153;-77
2021/01/28 04:15:17;;;;;;;10.25;5.10;;;;;;;;;;1733618;82;21146;-77
2021/01/28 04:17:43;;;;;;;13.98;7.10;;;;;;;;;;1730346;82;21178;-75
2021/01/28 04:20:10;;;;;;;6.72;3.52;;;;;;;;;;1730638;81;21162;-78
2021/01/28 04:22:37;;;;;;;14.65;6.37;;;;;;;;;;1730358;81;21141;-77
2021/01/28 04:25:04;;;;;;;14.28;6.97;;;;;;;;;;1730686;81;21213;-74
2021/01/28 04:27:31;;;;;;;17.87;7.47;;;;;;;;;;1730404;81;21167;-78
2021/01/28 04:29:57;;;;;;;12.60;6.37;;;;;;;;;;1743797;81;21137;-78
2021/01/28 04:32:23;;;;;;;6.75;3.42;;;;;;;;;;1768533;80;21134;-74
2021/01/28 04:34:49;;;;;;;15.25;7.30;;;;;;;;;;1728955;80;22276;-74
2021/01/28 04:37:16;;;;;;;13.80;5.90;;;;;;;;;;1750881;80;21188;-78
2021/01/28 04:39:42;;;;;;;11.05;5.92;;;;;;;;;;1750763;80;21579;-78
2021/01/28 04:42:15;;;;;;;9.15;4.55;;;;;;;;;;1769813;80;21154;-75
2021/01/28 04:44:42;;;;;;;15.30;6.15;;;;;;;;;;1754134;80;21147;-79
2021/01/28 04:47:08;;;;;;;10.55;5.70;;;;;;;;;;1746980;80;21596;-78
2021/01/28 04:49:34;;;;;;;13.58;6.28;;;;;;;;;;1744998;81;21207;-77
2021/01/28 04:52:02;;;;;;;9.40;5.55;;;;;;;;;;1745209;81;21167;-74
2021/01/28 04:54:35;;;;;;;9.13;4.45;;;;;;;;;;1745069;81;21588;-74
2021/01/28 04:57:04;;;;;;;12.18;5.80;;;;;;;;;;1745216;81;21634;-74
2021/01/28 04:59:33;;;;;;;13.22;4.72;;;;;;;;;;1741704;81;21143;-74
2021/01/28 05:02:00;;;;;;;8.63;4.45;;;;;;;;;;1730414;82;21736;-75
2021/01/28 05:04:31;;;;;;;10.23;4.90;;;;;;;;;;1724988;82;21163;-78
2021/01/28 05:06:57;;;;;;;5.97;3.50;;;;;;;;;;1764174;80;21799;-78
2021/01/28 05:09:23;;;;;;;16.27;6.80;;;;;;;;;;1775895;81;21154;-80
2021/01/28 05:11:50;;;;;;;9.70;4.65;;;;;;;;;;1775728;81;21134;-79
2021/01/28 05:14:18;;;;;;;9.93;4.53;;;;;;;;;;1754118;81;21199;-79
2021/01/28 05:16:46;;;;;;;17.45;6.60;;;;;;;;;;1744895;81;21706;-75
2021/01/28 05:19:14;;;;;;;10.82;5.20;;;;;;;;;;1744772;81;21573;-79
2021/01/28 05:21:42;;;;;;;7.95;5.10;;;;;;;;;;1742645;81;21139;-78
2021/01/28 05:24:10;;;;;;;12.50;6.00;;;;;;;;;;1744942;81;21144;-74
2021/01/28 05:26:37;;;;;;;7.87;4.17;;;;;;;;;;1743953;81;21207;-75
2021/01/28 05:29:24;;;;;;;6.95;3.55;;;;;;;;;;1751849;81;21145;-78
2021/01/28 05:31:50;;;;;;;9.83;5.67;;;;;;;;;;1738273;81;21122;-75
2021/01/28 05:34:21;;;;;;;14.28;7.47;;;;;;;;;;1709705;82;21232;-79
2021/01/28 05:36:52;;;;;;;7.15;3.17;;;;;;;;;;1740639;81;21268;-75
2021/01/28 05:39:23;;;;;;;11.20;4.87;;;;;;;;;;1745098;81;21188;-79
2021/01/28 05:41:49;;;;;;;8.48;4.58;;;;;;;;;;1739029;81;21163;-80
2021/01/28 05:44:17;;;;;;;8.18;4.87;;;;;;;;;;1729452;81;21100;-74
2021/01/28 05:46:43;;;;;;;6.78;3.75;;;;;;;;;;1750758;81;21130;-75
2021/01/28 05:49:11;;;;;;;6.78;3.52;;;;;;;;;;1736028;81;21131;-75
2021/01/28 05:51:38;;;;;;;13.58;5.12;;;;;;;;;;1761841;80;21178;-79
2021/01/28 05:54:06;;;;;;;11.95;5.80;;;;;;;;;;1761676;80;21159;-75
2021/01/28 05:56:33;;;;;;;9.78;5.10;;;;;;;;;;1762025;80;21166;-79
2021/01/28 05:59:01;;;;;;;9.20;4.22;;;;;;;;;;1757388;80;21148;-78
2021/01/28 06:01:32;;;;;;;14.78;5.42;;;;;;;;;;1750620;80;21324;-81
2021/01/28 06:04:00;;;;;;;12.60;6.85;;;;;;;;;;1752852;80;21629;-78
2021/01/28 06:06:45;;;;;;;12.05;4.85;;;;;;;;;;1749090;80;21182;-75
2021/01/28 06:09:30;;;;;;;10.63;5.20;;;;;;;;;;1733079;81;21127;-75
2021/01/28 06:12:04;;;;;;;14.70;7.00;;;;;;;;;;1732166;81;21167;-74
2021/01/28 06:14:41;;;;;;;20.02;7.58;;;;;;;;;;1731049;81;21586;-76
2021/01/28 06:17:15;;;;;;;8.05;4.42;;;;;;;;;;1725338;81;21213;-77
2021/01/28 06:19:43;;;;;;;9.50;4.83;;;;;;;;;;1686695;81;21590;-76
2021/01/28 06:22:20;;;;;;;8.18;4.12;;;;;;;;;;1732107;81;21579;-77
2021/01/28 06:24:48;;;;;;;16.35;6.22;;;;;;;;;;1732113;81;21227;-76
2021/01/28 06:27:28;;;;;;;9.60;6.12;;;;;;;;;;1726949;81;21149;-75
2021/01/28 06:29:56;;;;;;;11.90;5.33;;;;;;;;;;1730148;81;21120;-76
2021/01/28 06:32:24;;;;;;;13.40;5.85;;;;;;;;;;1727705;81;21129;-77
2021/01/28 06:34:52;;;;;;;14.10;6.65;;;;;;;;;;1736518;81;21153;-75
2021/01/28 06:37:27;;;;;;;8.48;3.77;;;;;;;;;;1723419;81;21126;-77
2021/01/28 06:39:53;;;;;;;9.03;4.58;;;;;;;;;;1723766;81;21581;-77
2021/01/28 06:42:24;;;;;;;10.18;4.87;;;;;;;;;;1729331;81;21135;-75
2021/01/28 06:44:58;;;;;;;8.58;4.15;;;;;;;;;;1724911;81;21728;-77
2021/01/28 06:47:26;;;;;;;7.72;3.77;;;;;;;;;;1693721;83;21193;-78
2021/01/28 06:49:59;;;;;;;13.93;5.50;;;;;;;;;;1742905;81;21131;-75
2021/01/28 06:52:27;;;;;;;15.45;6.67;;;;;;;;;;1732682;81;21146;-78
2021/01/28 06:54:58;;;;;;;13.60;6.53;;;;;;;;;;1754399;81;22133;-73
2021/01/28 06:57:29;;;;;;;19.32;7.08;;;;;;;;;;1726103;81;21145;-78
2021/01/28 07:00:00;;;;;;;15.40;6.53;;;;;;;;;;1736152;82;21142;-79
2021/01/28 07:02:34;;;;;;;15.50;4.92;;;;;;;;;;1729354;81;21668;-75
2021/01/28 07:05:12;;;;;;;14.80;6.62;;;;;;;;;;1765596;81;21873;-75
2021/01/28 07:07:40;;;;;;;11.53;4.92;;;;;;;;;;1725487;81;21534;-81
2021/01/28 07:10:11;;;;;;;14.65;6.25;;;;;;;;;;1732055;81;21173;-75
2021/01/28 07:12:38;;;;;;;20.12;7.50;;;;;;;;;;1732726;81;21102;-77
2021/01/28 07:15:05;;;;;;;16.07;6.35;;;;;;;;;;1724922;81;21145;-76
2021/01/28 07:17:33;;;;;;;15.48;6.47;;;;;;;;;;1732174;81;21176;-81
2021/01/28 07:20:00;;;;;;;12.15;6.03;;;;;;;;;;1698769;81;21170;-76
2021/01/28 07:22:36;;;;;;;9.33;4.87;;;;;;;;;;1729129;81;21157;-75
2021/01/28 07:25:21;;;;;;;15.45;7.40;;;;;;;;;;1726772;81;21175;-76
2021/01/28 07:27:55;;;;;;;14.83;7.35;;;;;;;;;;1733223;81;21144;-78
2021/01/28 07:30:35;;;;;;;16.07;8.20;;;;;;;;;;1736801;81;21254;-78
2021/01/28 07:33:01;;;;;;;12.40;6.37;;;;;;;;;;1739489;81;21146;-79
2021/01/28 07:35:35;;;;;;;13.60;5.25;;;;;;;;;;1730852;81;21129;-76
2021/01/28 07:38:19;;;;;;;14.15;6.17;;;;;;;;;;1738014;81;21146;-75
2021/01/28 07:41:06;;;;;;;17.98;7.65;;;;;;;;;;1735210;81;21197;-79
2021/01/28 07:43:33;;;;;;;11.28;6.35;;;;;;;;;;1663321;84;21381;-83
2021/01/28 07:46:11;;;;;;;15.03;6.45;;;;;;;;;;1715027;83;21275;-80
2021/01/28 07:48:38;;;;;;;15.60;6.70;;;;;;;;;;1674050;84;21120;-82
2021/01/28 07:51:24;;;;;;;12.75;6.20;;;;;;;;;;1695175;84;21152;-83
2021/01/28 07:53:51;;;;;;;9.88;4.92;;;;;;;;;;1698925;83;21190;-80
2021/01/28 07:56:37;;;;;;;17.07;7.45;;;;;;;;;;1705833;84;21146;-77
2021/01/28 07:59:04;;;;;;;13.70;6.03;;;;;;;;;;1708296;84;21192;-78
2021/01/28 08:01:30;;;;;;;12.10;5.25;;;;;;;;;;1710275;83;21278;-80
2021/01/28 08:09:49;;;;;;;10.03;3.72;;;;;;;;;;1650612;85;21188;-79
2021/01/28 08:12:26;;;;;;;14.35;5.20;;;;;;;;;;1691210;85;21600;-78
2021/01/28 08:14:53;;;;;;;16.57;7.55;;;;;;;;;;1691000;85;21195;-78
2021/01/28 08:17:31;;;;;;;12.63;6.22;;;;;;;;;;1691902;84;21446;-77
2021/01/28 08:20:15;;;;;;;10.80;6.30;;;;;;;;;;1708313;82;21160;-79
2021/01/28 08:23:00;;;;;;;11.10;5.97;;;;;;;;;;1708591;84;21160;-77
2021/01/28 08:25:27;;;;;;;9.63;4.85;;;;;;;;;;1708770;83;21155;-79
2021/01/28 08:27:53;;;;;;;16.90;5.72;;;;;;;;;;1708854;84;21140;-79
2021/01/28 08:30:21;;;;;;;7.92;4.65;;;;;;;;;;1708716;84;21601;-79
2021/01/28 08:32:48;;;;;;;8.80;4.00;;;;;;;;;;1708427;82;21164;-79
2021/01/28 08:35:16;;;;;;;10.48;5.22;;;;;;;;;;1706001;84;21152;-79
2021/01/28 08:37:42;;;;;;;10.72;5.47;;;;;;;;;;1708523;83;21156;-79
2021/01/28 08:40:16;;;;;;;9.93;5.10;;;;;;;;;;1708586;84;21163;-79
2021/01/28 08:42:42;;;;;;;13.68;5.03;;;;;;;;;;1708346;84;21180;-79
2021/01/28 08:45:10;;;;;;;11.08;4.25;;;;;;;;;;1708379;82;21151;-79
2021/01/28 08:47:36;;;;;;;9.83;5.37;;;;;;;;;;1716020;82;21644;-79
2021/01/28 08:50:07;;;;;;;10.90;5.62;;;;;;;;;;1754381;82;21122;-78
2021/01/28 08:52:33;;;;;;;7.75;3.33;;;;;;;;;;1754348;82;21121;-79
2021/01/28 08:55:00;;;;;;;9.95;4.30;;;;;;;;;;1754176;82;21560;-78
2021/01/28 08:57:26;;;;;;;10.28;4.67;;;;;;;;;;1726488;82;21122;-80
2021/01/28 09:00:01;;;;;;;11.57;5.62;;;;;;;;;;1749587;82;21541;-79
2021/01/28 09:02:36;;;;;;;7.70;3.10;;;;;;;;;;1754098;82;21118;-80
2021/01/28 09:05:03;;;;;;;9.93;5.37;;;;;;;;;;1754080;82;21125;-79
2021/01/28 09:07:48;;;;;;;13.13;5.12;;;;;;;;;;1754251;80;21138;-79
2021/01/28 09:10:28;;;;;;;17.37;7.87;;;;;;;;;;1754196;82;21126;-80
2021/01/28 09:13:11;;;;;;;12.82;6.60;;;;;;;;;;1754199;82;21122;-80
2021/01/28 09:15:38;;;;;;;9.90;5.45;;;;;;;;;;1662743;86;21193;-79
2021/01/28 09:18:05;;;;;;;10.82;5.87;;;;;;;;;;1724601;82;21605;-80
2021/01/28 09:20:33;;;;;;;8.15;3.08;;;;;;;;;;1754313;82;21166;-79
2021/01/28 09:23:07;;;;;;;11.05;5.42;;;;;;;;;;1753093;82;21141;-80
2021/01/28 09:25:41;;;;;;;8.98;4.87;;;;;;;;;;1754245;82;21160;-80
2021/01/28 09:28:13;;;;;;;11.68;5.95;;;;;;;;;;1754066;82;21173;-76
2021/01/28 09:30:41;;;;;;;10.53;4.72;;;;;;;;;;1754207;82;21165;-76
2021/01/28 09:33:24;;;;;;;9.65;5.08;;;;;;;;;;1754134;82;21106;-76
2021/01/28 09:36:03;;;;;;;9.60;4.45;;;;;;;;;;1753948;82;21177;-76
2021/01/28 09:38:29;;;;;;;14.60;6.37;;;;;;;;;;1754016;82;21569;-76
2021/01/28 09:41:09;;;;;;;12.68;5.50;;;;;;;;;;1754024;82;21106;-75
2021/01/28 09:43:35;;;;;;;17.60;5.97;;;;;;;;;;1752274;82;21161;-76
